createdAt,value
2022-09-11T00:00:05.433Z,100702.06
2022-09-11T00:05:10.259Z,100705.13
2022-09-11T00:10:07.272Z,100699.47
2022-09-11T00:15:05.513Z,100699.22
2022-09-11T00:20:03.554Z,100709.66
2022-09-11T00:25:00.919Z,100707.16
2022-09-11T00:29:57.621Z,100697.25
2022-09-11T00:34:55.006Z,100696.78
2022-09-11T00:39:54.592Z,100697.97
2022-09-11T00:45:00.300Z,100701.28
2022-09-11T00:50:00.924Z,100691.84
2022-09-11T00:55:00.074Z,100686.44
2022-09-11T00:59:58.393Z,100687.97
2022-09-11T01:05:00.305Z,100696.63
2022-09-11T01:09:58.661Z,100674.66
2022-09-11T01:14:58.284Z,100694.22
2022-09-11T01:20:04.725Z,100686.84
2022-09-11T01:25:08.587Z,100693.38
2022-09-11T01:30:11.498Z,100698.09
2022-09-11T01:35:12.198Z,100695.50
2022-09-11T01:40:12.975Z,100693.88
2022-09-11T01:45:13.479Z,100688.88
2022-09-11T01:50:13.921Z,100686.38
2022-09-11T01:55:16.373Z,100697.28
2022-09-11T02:00:14.329Z,100692.06
2022-09-11T02:05:23.064Z,100698.03
2022-09-11T02:10:22.920Z,100706.84
2022-09-11T02:15:24.673Z,100698.50
2022-09-11T02:20:21.508Z,100691.66
2022-09-11T02:25:18.112Z,100689.13
2022-09-11T02:30:15.604Z,100697.75
2022-09-11T02:35:15.873Z,100698.13
2022-09-11T02:40:28.366Z,100677.66
2022-09-11T02:45:32.828Z,100695.31
2022-09-11T02:50:33.822Z,100696.94
2022-09-11T02:55:41.111Z,100673.81
2022-09-11T03:00:38.674Z,100693.97
2022-09-11T03:05:36.596Z,100696.03
2022-09-11T03:10:33.861Z,100699.88
2022-09-11T03:15:30.977Z,100704.38
2022-09-11T03:20:27.814Z,100701.09
2022-09-11T03:25:27.658Z,100701.69
2022-09-11T03:30:26.290Z,100705.97
2022-09-11T03:35:23.237Z,100706.59
2022-09-11T03:40:20.078Z,100711.06
2022-09-11T03:45:17.749Z,100714.84
2022-09-11T03:50:14.689Z,100720.16
2022-09-11T03:55:11.566Z,100725.78
2022-09-11T04:00:09.464Z,100723.44
2022-09-11T04:05:27.274Z,100735.44
2022-09-11T04:10:24.396Z,100728.66
2022-09-11T04:15:21.763Z,100729.91
2022-09-11T04:20:18.748Z,100735.59
2022-09-11T04:25:17.118Z,100741.72
2022-09-11T04:30:14.171Z,100748.41
2022-09-11T04:35:11.038Z,100743.94
2022-09-11T04:40:18.188Z,100734.59
2022-09-11T04:45:15.607Z,100741.63
2022-09-11T04:50:12.786Z,100738.22
2022-09-11T04:55:17.233Z,100735.22
2022-09-11T05:00:17.767Z,100738.97
2022-09-11T05:05:14.607Z,100738.94
2022-09-11T05:10:14.491Z,100740.53
2022-09-11T05:15:18.921Z,100745.84
2022-09-11T05:20:16.603Z,100747.47
2022-09-11T05:25:15.588Z,100747.81
2022-09-11T05:30:19.125Z,100752.56
2022-09-11T05:35:18.622Z,100762.47
2022-09-11T05:40:15.935Z,100758.34
2022-09-11T05:45:12.958Z,100761.03
2022-09-11T05:50:16.953Z,100758.97
2022-09-11T05:55:15.814Z,100756.44
2022-09-11T06:00:20.290Z,100755.84
2022-09-11T06:05:20.325Z,100748.91
2022-09-11T06:10:19.788Z,100754.97
2022-09-11T06:15:36.266Z,100741.03
2022-09-11T06:20:33.335Z,100747.69
2022-09-11T06:25:31.773Z,100734.13
2022-09-11T06:30:31.523Z,100718.34
2022-09-11T06:35:29.446Z,100742.13
2022-09-11T06:47:03.607Z,100743.09
2022-09-11T06:52:02.238Z,100738.81
2022-09-11T06:57:01.151Z,100743.38
2022-09-11T07:02:09.086Z,100739.84
2022-09-11T07:07:06.773Z,100743.06
2022-09-11T07:12:05.521Z,100744.13
2022-09-11T07:17:03.400Z,100744.13
2022-09-11T07:22:05.154Z,100750.22
2022-09-11T07:27:04.513Z,100753.34
2022-09-11T07:32:05.304Z,100747.25
2022-09-11T07:37:02.357Z,100753.63
2022-09-11T07:41:59.480Z,100746.44
2022-09-11T07:47:00.417Z,100762.63
2022-09-11T07:51:58.817Z,100766.16
2022-09-11T07:57:06.749Z,100767.97
2022-09-11T08:02:05.161Z,100767.97
2022-09-11T08:07:02.055Z,100762.47
2022-09-11T08:12:03.919Z,100765.69
2022-09-11T08:17:02.595Z,100747.78
2022-09-11T08:22:01.883Z,100768.78
2022-09-11T08:27:05.443Z,100763.72
2022-09-11T08:32:07.697Z,100755.31
2022-09-11T08:37:05.472Z,100753.91
2022-09-11T08:42:07.637Z,100740.66
2022-09-11T08:47:10.148Z,100731.16
2022-09-11T08:52:12.309Z,100734.22
2022-09-11T08:57:13.210Z,100727.09
2022-09-11T09:02:21.343Z,100722.66
2022-09-11T09:07:23.429Z,100706.72
2022-09-11T09:12:25.792Z,100704.13
2022-09-11T09:17:26.390Z,100701.03
2022-09-11T09:22:26.887Z,100704.59
2022-09-11T09:27:25.414Z,100699.00
2022-09-11T09:32:25.626Z,100695.22
2022-09-11T09:37:25.679Z,100695.53
2022-09-11T09:42:49.946Z,100696.59
2022-09-11T09:47:48.437Z,100687.63
2022-09-11T09:52:45.636Z,100674.47
2022-09-11T09:57:42.871Z,100678.75
2022-09-11T10:02:41.069Z,100664.31
2022-09-11T10:07:45.812Z,100664.84
2022-09-11T10:12:44.832Z,100665.75
2022-09-11T10:17:42.321Z,100647.66
2022-09-11T10:22:39.414Z,100664.56
2022-09-11T10:27:40.367Z,100657.34
2022-09-11T10:32:40.971Z,100642.34
2022-09-11T10:37:38.592Z,100657.22
2022-09-11T10:42:37.276Z,100658.94
2022-09-11T10:47:33.884Z,100660.78
2022-09-11T10:52:30.536Z,100632.06
2022-09-11T10:57:43.182Z,100648.94
2022-09-11T11:02:41.340Z,100649.63
2022-09-11T11:07:56.119Z,100652.69
2022-09-11T11:13:04.506Z,100644.63
2022-09-11T11:18:11.436Z,100640.97
2022-09-11T11:23:23.642Z,100627.50
2022-09-11T11:28:47.333Z,100629.22
2022-09-11T11:33:55.325Z,100629.56
2022-09-11T11:38:59.776Z,100613.03
2022-09-11T11:43:59.065Z,100623.19
2022-09-11T11:48:59.116Z,100624.88
2022-09-11T11:53:59.661Z,100626.34
2022-09-11T11:59:00.234Z,100622.28
2022-09-11T12:04:02.183Z,100626.66
2022-09-11T12:09:01.790Z,100616.06
2022-09-11T12:13:59.934Z,100622.50
2022-09-11T12:19:04.434Z,100602.09
2022-09-11T12:24:17.473Z,100595.88
2022-09-11T12:29:32.728Z,100594.97
2022-09-11T12:34:51.533Z,100593.88
2022-09-11T12:39:52.610Z,100593.53
2022-09-11T12:44:56.609Z,100575.78
2022-09-11T12:49:55.970Z,100585.28
2022-09-11T12:55:22.182Z,100593.19
2022-09-11T13:07:29.684Z,100589.97
2022-09-11T13:12:56.574Z,100577.19
2022-09-11T13:18:06.745Z,100570.28
2022-09-11T13:23:21.897Z,100562.19
2022-09-11T13:28:27.108Z,100562.16
2022-09-11T13:40:06.128Z,100538.44
2022-09-11T13:45:45.325Z,100548.88
2022-09-11T13:51:06.650Z,100536.41
2022-09-11T13:56:06.645Z,100534.03
2022-09-11T14:01:14.266Z,100527.28
2022-09-11T14:06:22.452Z,100518.66
2022-09-11T14:11:31.368Z,100511.56
2022-09-11T14:16:36.435Z,100505.19
2022-09-11T14:27:36.225Z,100499.97
2022-09-11T14:38:56.509Z,100485.59
2022-09-11T14:44:17.317Z,100476.69
2022-09-11T14:50:00.503Z,100473.09
2022-09-11T14:55:01.114Z,100457.59
2022-09-11T14:59:58.800Z,100473.78
2022-09-11T15:05:15.375Z,100471.75
2022-09-11T15:10:13.132Z,100463.34
2022-09-11T15:15:10.082Z,100455.56
2022-09-11T15:20:10.239Z,100455.38
2022-09-11T15:25:07.401Z,100456.94
2022-09-11T15:30:08.210Z,100454.53
2022-09-11T15:35:05.644Z,100455.22
2022-09-11T15:40:03.406Z,100437.72
2022-09-11T15:45:01.278Z,100441.06
2022-09-11T15:50:01.320Z,100442.25
2022-09-11T15:54:58.086Z,100438.41
2022-09-11T15:59:54.833Z,100448.53
2022-09-11T16:04:55.322Z,100449.06
2022-09-11T16:09:53.876Z,100448.25
2022-09-11T16:14:54.457Z,100444.59
2022-09-11T16:19:51.317Z,100451.66
2022-09-11T16:24:48.061Z,100455.88
2022-09-11T16:35:02.552Z,100456.41
2022-09-11T16:40:02.157Z,100452.16
2022-09-11T16:44:59.840Z,100450.34
2022-09-11T16:50:12.099Z,100458.41
2022-09-11T16:55:09.547Z,100463.13
2022-09-11T17:00:08.603Z,100472.06
2022-09-11T17:05:05.530Z,100479.75
2022-09-11T17:16:02.170Z,100494.69
2022-09-11T17:21:09.197Z,100490.09
2022-09-11T17:26:10.501Z,100497.94
2022-09-11T17:31:09.239Z,100511.19
2022-09-11T17:36:06.678Z,100520.56
2022-09-11T17:41:16.928Z,100520.31
2022-09-11T17:46:26.212Z,100529.78
2022-09-11T17:51:24.505Z,100532.66
2022-09-11T17:56:23.213Z,100537.94
2022-09-11T18:01:26.630Z,100545.88
2022-09-11T18:06:25.492Z,100557.91
2022-09-11T18:11:39.150Z,100561.66
2022-09-11T18:16:37.081Z,100563.72
2022-09-11T18:21:37.098Z,100555.31
2022-09-11T18:26:37.775Z,100557.34
2022-09-11T18:31:40.616Z,100558.88
2022-09-11T18:36:38.365Z,100551.16
2022-09-11T18:41:35.639Z,100553.72
2022-09-11T18:46:32.906Z,100558.09
2022-09-11T18:51:33.280Z,100551.03
2022-09-11T18:56:31.649Z,100552.38
2022-09-11T19:01:29.146Z,100560.00
2022-09-11T19:06:27.961Z,100556.72
2022-09-11T19:11:25.893Z,100552.09
2022-09-11T19:16:23.263Z,100546.50
2022-09-11T19:21:21.703Z,100555.47
2022-09-11T19:26:25.280Z,100534.06
2022-09-11T19:31:24.337Z,100564.91
2022-09-11T19:36:23.207Z,100565.28
2022-09-11T19:41:20.987Z,100555.00
2022-09-11T19:46:18.920Z,100547.53
2022-09-11T19:51:17.622Z,100547.53
2022-09-11T19:56:17.098Z,100551.50
2022-09-11T20:01:14.728Z,100567.88
2022-09-11T20:06:12.302Z,100583.75
2022-09-11T20:11:09.873Z,100583.91
2022-09-11T20:16:07.948Z,100589.41
2022-09-11T20:21:05.776Z,100595.91
2022-09-11T20:26:08.786Z,100598.41
2022-09-11T20:31:12.387Z,100615.31
2022-09-11T20:36:09.151Z,100621.53
2022-09-11T20:41:06.836Z,100620.53
2022-09-11T20:46:04.105Z,100613.44
2022-09-11T20:51:02.628Z,100602.25
2022-09-11T20:56:02.904Z,100601.19
2022-09-11T21:01:01.206Z,100602.78
2022-09-11T21:05:58.227Z,100592.34
2022-09-11T21:10:55.612Z,100589.91
2022-09-11T21:15:52.417Z,100583.94
2022-09-11T21:20:55.548Z,100595.78
2022-09-11T21:25:52.899Z,100599.63
2022-09-11T21:30:53.563Z,100594.13
2022-09-11T21:35:51.881Z,100605.91
2022-09-11T21:40:50.790Z,100599.06
2022-09-11T21:45:48.984Z,100605.53
2022-09-11T21:50:46.576Z,100597.72
2022-09-11T21:55:44.705Z,100606.19
2022-09-11T22:00:43.235Z,100615.44
2022-09-11T22:05:40.349Z,100611.91
2022-09-11T22:10:41.644Z,100600.97
2022-09-11T22:15:39.619Z,100608.03
2022-09-11T22:20:37.608Z,100606.69
2022-09-11T22:25:36.266Z,100626.78
2022-09-11T22:30:33.800Z,100616.56
2022-09-11T22:35:33.624Z,100618.16
2022-09-11T22:40:30.875Z,100608.00
2022-09-11T22:45:27.871Z,100610.59
2022-09-11T22:50:25.657Z,100591.38
2022-09-11T22:55:22.338Z,100599.19
2022-09-11T23:00:19.248Z,100602.69
2022-09-11T23:05:33.912Z,100596.28
2022-09-11T23:10:31.237Z,100595.41
2022-09-11T23:15:28.070Z,100612.72
2022-09-11T23:20:24.636Z,100599.09
2022-09-11T23:25:21.831Z,100620.41
2022-09-11T23:30:22.059Z,100608.72
2022-09-11T23:35:18.651Z,100588.25
2022-09-11T23:40:15.364Z,100595.78
2022-09-11T23:45:12.497Z,100575.56
2022-09-11T23:50:10.174Z,100596.16
2022-09-11T23:55:07.168Z,100594.22
